createdAt,value
2019-02-21T00:04:30.035Z,100364.14
2019-02-21T00:09:35.500Z,100365.87
2019-02-21T00:14:40.896Z,100365.55
2019-02-21T00:19:46.140Z,100366.13
2019-02-21T00:24:51.575Z,100389.05
2019-02-21T00:29:56.919Z,100381.89
2019-02-21T00:35:02.607Z,100389.46
2019-02-21T00:40:08.322Z,100393.91
2019-02-21T00:45:13.741Z,100406.33
2019-02-21T00:50:19.301Z,100405.84
2019-02-21T00:55:27.696Z,100397.39
2019-02-21T01:00:32.137Z,100401.34
2019-02-21T01:05:37.638Z,100415.63
2019-02-21T01:10:43.074Z,100403.13
2019-02-21T01:15:48.491Z,100417.41
2019-02-21T01:20:53.878Z,100415.26
2019-02-21T01:25:59.352Z,100420.59
2019-02-21T01:31:05.196Z,100416.95
2019-02-21T01:36:10.596Z,100422.30
2019-02-21T01:41:15.931Z,100416.52
2019-02-21T01:46:21.430Z,100425.05
2019-02-21T01:51:26.832Z,100428.28
2019-02-21T01:56:32.261Z,100426.09
2019-02-21T02:01:37.655Z,100426.17
2019-02-21T02:06:43.136Z,100441.78
2019-02-21T02:11:48.371Z,100444.45
2019-02-21T02:16:53.675Z,100440.81
2019-02-21T02:21:58.930Z,100436.84
2019-02-21T02:27:04.391Z,100436.48
2019-02-21T02:32:09.995Z,100439.84
2019-02-21T02:37:15.372Z,100446.03
2019-02-21T02:42:20.657Z,100444.29
2019-02-21T02:47:26.091Z,100462.98
2019-02-21T02:52:31.514Z,100466.54
2019-02-21T02:57:36.870Z,100462.64
2019-02-21T03:02:43.263Z,100460.87
2019-02-21T03:07:48.660Z,100464.88
2019-02-21T03:12:54.071Z,100462.09
2019-02-21T03:17:59.466Z,100475.03
2019-02-21T03:23:04.970Z,100466.98
2019-02-21T03:28:10.278Z,100464.76
2019-02-21T03:33:15.563Z,100467.50
2019-02-21T03:38:20.989Z,100456.02
2019-02-21T03:43:26.362Z,100463.69
2019-02-21T03:48:31.814Z,100466.32
2019-02-21T03:53:37.149Z,100464.55
2019-02-21T03:58:42.965Z,100464.17
2019-02-21T04:03:48.452Z,100466.99
2019-02-21T04:08:53.870Z,100466.14
2019-02-21T04:13:59.185Z,100467.03
2019-02-21T04:19:04.821Z,100456.80
2019-02-21T04:24:10.179Z,100457.77
2019-02-21T04:29:15.568Z,100482.26
2019-02-21T04:34:21.066Z,100476.41
2019-02-21T04:39:26.461Z,100474.14
2019-02-21T04:44:31.751Z,100471.06
2019-02-21T04:49:37.095Z,100471.06
2019-02-21T04:54:42.377Z,100473.37
2019-02-21T04:59:47.842Z,100474.70
2019-02-21T05:04:53.185Z,100477.00
2019-02-21T05:09:59.427Z,100490.70
2019-02-21T05:15:04.895Z,100488.48
2019-02-21T05:20:10.367Z,100496.94
2019-02-21T05:25:15.596Z,100498.61
2019-02-21T05:30:23.669Z,100507.31
2019-02-21T05:35:37.100Z,100495.75
2019-02-21T05:40:50.307Z,100501.09
2019-02-21T05:46:04.052Z,100508.28
2019-02-21T05:51:15.915Z,100501.34
2019-02-21T05:56:30.065Z,100497.67
2019-02-21T06:01:43.173Z,100500.25
2019-02-21T06:06:56.715Z,100492.02
2019-02-21T06:12:11.062Z,100494.37
2019-02-21T06:17:25.157Z,100501.08
2019-02-21T06:22:43.927Z,100506.09
2019-02-21T06:27:54.542Z,100500.02
2019-02-21T06:33:04.930Z,100518.67
2019-02-21T06:38:07.053Z,100525.08
2019-02-21T06:43:12.426Z,100526.17
2019-02-21T06:48:17.856Z,100533.66
2019-02-21T06:53:23.156Z,100527.84
2019-02-21T06:58:28.610Z,100544.09
2019-02-21T07:03:34.845Z,100547.09
2019-02-21T07:08:40.338Z,100563.10
2019-02-21T07:13:47.666Z,100569.26
2019-02-21T07:18:52.943Z,100565.63
2019-02-21T07:23:58.240Z,100576.78
2019-02-21T07:29:05.940Z,100588.28
2019-02-21T07:34:11.320Z,100593.65
2019-02-21T07:39:20.604Z,100596.31
2019-02-21T07:44:24.209Z,100607.81
2019-02-21T07:49:29.694Z,100614.55
2019-02-21T07:54:35.213Z,100622.48
2019-02-21T07:59:40.626Z,100628.33
2019-02-21T08:04:46.114Z,100640.69
2019-02-21T08:09:51.756Z,100645.03
2019-02-21T08:14:57.322Z,100657.93
2019-02-21T08:20:08.373Z,100665.05
2019-02-21T08:25:10.711Z,100679.59
2019-02-21T08:30:16.700Z,100700.50
2019-02-21T08:35:22.220Z,100702.59
2019-02-21T08:40:27.566Z,100696.36
2019-02-21T08:45:32.913Z,100718.98
2019-02-21T08:50:38.311Z,100719.36
2019-02-21T08:55:43.955Z,100710.50
2019-02-21T09:00:49.308Z,100705.89
2019-02-21T09:05:54.750Z,100694.32
2019-02-21T09:11:03.964Z,100704.90
2019-02-21T09:16:09.010Z,100713.38
2019-02-21T09:21:15.375Z,100710.89
2019-02-21T09:26:22.416Z,100704.69
2019-02-21T09:31:27.786Z,100717.22
2019-02-21T09:36:33.245Z,100717.91
2019-02-21T09:41:38.545Z,100722.70
2019-02-21T09:46:43.916Z,100723.70
2019-02-21T09:51:49.574Z,100703.86
2019-02-21T09:56:55.043Z,100725.00
2019-02-21T10:02:02.820Z,100708.18
2019-02-21T10:07:08.345Z,100716.34
2019-02-21T10:12:13.754Z,100723.98
2019-02-21T10:17:19.067Z,100728.38
2019-02-21T10:22:26.053Z,100734.94
2019-02-21T10:27:31.437Z,100730.14
2019-02-21T10:32:36.910Z,100742.05
2019-02-21T10:37:42.314Z,100750.48
2019-02-21T10:42:49.886Z,100750.76
2019-02-21T10:47:55.174Z,100761.30
2019-02-21T10:53:00.421Z,100757.08
2019-02-21T10:58:05.938Z,100762.44
2019-02-21T11:03:11.505Z,100777.25
2019-02-21T11:08:16.868Z,100765.69
2019-02-21T11:13:26.205Z,100775.71
2019-02-21T11:18:31.513Z,100764.52
2019-02-21T11:23:37.013Z,100775.33
2019-02-21T11:28:42.324Z,100795.52
2019-02-21T11:33:47.692Z,100797.42
2019-02-21T11:38:53.123Z,100785.42
2019-02-21T11:43:58.429Z,100795.44
2019-02-21T11:49:03.973Z,100802.94
2019-02-21T11:54:09.346Z,100799.06
2019-02-21T11:59:16.107Z,100786.17
2019-02-21T12:04:21.493Z,100792.77
2019-02-21T12:09:26.890Z,100782.37
2019-02-21T12:14:32.354Z,100780.87
2019-02-21T12:19:37.745Z,100785.02
2019-02-21T12:24:44.100Z,100783.63
2019-02-21T12:29:49.494Z,100789.37
2019-02-21T12:34:55.059Z,100797.48
2019-02-21T12:40:00.519Z,100798.07
2019-02-21T12:45:07.231Z,100794.98
2019-02-21T12:50:13.080Z,100801.89
2019-02-21T12:55:27.024Z,100800.46
2019-02-21T13:00:25.630Z,100786.64
2019-02-21T13:05:40.346Z,100798.97
2019-02-21T13:10:38.220Z,100813.52
2019-02-21T13:15:43.640Z,100815.69
2019-02-21T13:20:49.094Z,100826.30
2019-02-21T13:25:54.472Z,100820.79
2019-02-21T13:31:00.001Z,100825.03
2019-02-21T13:36:07.211Z,100818.95
2019-02-21T13:41:12.639Z,100818.48
2019-02-21T13:46:18.147Z,100823.72
2019-02-21T13:51:23.686Z,100827.97
2019-02-21T13:56:29.215Z,100826.97
2019-02-21T14:01:34.713Z,100826.20
2019-02-21T14:06:39.984Z,100823.18
2019-02-21T14:11:45.314Z,100841.55
2019-02-21T14:16:50.654Z,100844.42
2019-02-21T14:21:57.439Z,100839.95
2019-02-21T14:27:02.789Z,100835.08
2019-02-21T14:32:08.192Z,100846.50
2019-02-21T14:37:13.560Z,100840.19
2019-02-21T14:42:18.818Z,100840.50
2019-02-21T14:47:24.378Z,100850.42
2019-02-21T14:52:29.834Z,100857.13
2019-02-21T14:57:40.963Z,100857.20
2019-02-21T15:02:42.734Z,100856.27
2019-02-21T15:07:48.125Z,100868.86
2019-02-21T15:12:53.363Z,100854.34
2019-02-21T15:18:06.840Z,100865.92
2019-02-21T15:23:05.915Z,100863.81
2019-02-21T15:28:11.470Z,100868.09
2019-02-21T15:33:16.823Z,100870.59
2019-02-21T15:38:22.316Z,100860.13
2019-02-21T15:43:27.765Z,100871.80
2019-02-21T15:48:33.221Z,100874.28
2019-02-21T15:53:40.098Z,100874.56
2019-02-21T15:58:45.388Z,100878.34
2019-02-21T16:03:50.628Z,100866.28
2019-02-21T16:08:56.118Z,100872.50
2019-02-21T16:14:03.523Z,100871.59
2019-02-21T16:19:08.665Z,100859.48
2019-02-21T16:24:14.189Z,100858.77
2019-02-21T16:29:19.650Z,100872.31
2019-02-21T16:34:25.151Z,100869.00
2019-02-21T16:39:30.650Z,100872.72
2019-02-21T16:44:37.449Z,100881.86
2019-02-21T16:49:44.313Z,100874.51
2019-02-21T16:54:49.866Z,100889.98
2019-02-21T16:59:55.386Z,100889.84
2019-02-21T17:05:01.005Z,100899.36
2019-02-21T17:10:07.031Z,100897.38
2019-02-21T17:15:13.173Z,100907.44
2019-02-21T17:20:18.809Z,100904.05
2019-02-21T17:25:24.323Z,100904.71
2019-02-21T17:30:29.732Z,100904.81
2019-02-21T17:35:35.309Z,100911.20
2019-02-21T17:40:40.993Z,100923.30
2019-02-21T17:45:46.478Z,100926.17
2019-02-21T17:50:52.011Z,100933.38
2019-02-21T17:55:59.351Z,100952.98
2019-02-21T18:01:07.523Z,100946.85
2019-02-21T18:06:12.891Z,100954.89
2019-02-21T18:11:18.379Z,100958.14
2019-02-21T18:16:23.929Z,100968.87
2019-02-21T18:21:29.527Z,100977.43
2019-02-21T18:26:35.069Z,100976.12
2019-02-21T18:31:40.343Z,100977.43
2019-02-21T18:36:45.702Z,100977.88
2019-02-21T18:41:51.203Z,100979.16
2019-02-21T18:46:57.226Z,100994.41
2019-02-21T18:52:02.771Z,100994.41
2019-02-21T18:57:08.179Z,100991.23
2019-02-21T19:02:13.648Z,100990.00
2019-02-21T19:07:19.001Z,100995.78
2019-02-21T19:12:24.433Z,101002.03
2019-02-21T19:17:30.049Z,100997.20
2019-02-21T19:22:36.917Z,100986.59
2019-02-21T19:27:42.577Z,100999.00
2019-02-21T19:32:48.582Z,101002.14
2019-02-21T19:37:54.105Z,101005.77
2019-02-21T19:42:59.830Z,100992.86
2019-02-21T19:48:05.255Z,101000.05
2019-02-21T19:53:10.978Z,101003.66
2019-02-21T19:58:16.827Z,100994.88
2019-02-21T20:03:22.464Z,100982.11
2019-02-21T20:08:27.931Z,100995.98
2019-02-21T20:13:34.678Z,101008.39
2019-02-21T20:18:40.286Z,101013.80
2019-02-21T20:23:45.918Z,101015.59
2019-02-21T20:28:51.214Z,101023.25
2019-02-21T20:33:56.511Z,101028.12
2019-02-21T20:39:02.206Z,101023.70
2019-02-21T20:44:09.872Z,101025.55
2019-02-21T20:49:15.264Z,101018.48
2019-02-21T20:54:20.646Z,101033.57
2019-02-21T20:59:26.252Z,101038.97
2019-02-21T21:04:31.663Z,101047.47
2019-02-21T21:09:37.461Z,101050.98
2019-02-21T21:14:42.757Z,101061.66
2019-02-21T21:19:48.126Z,101062.23
2019-02-21T21:24:53.498Z,101062.28
2019-02-21T21:29:58.874Z,101071.09
2019-02-21T21:35:04.616Z,101072.41
2019-02-21T21:40:13.146Z,101078.63
2019-02-21T21:45:18.779Z,101096.83
2019-02-21T21:50:24.442Z,101091.52
2019-02-21T21:55:32.856Z,101103.91
2019-02-21T22:00:38.307Z,101114.08
2019-02-21T22:05:44.054Z,101118.98
2019-02-21T22:10:49.434Z,101122.12
2019-02-21T22:15:55.081Z,101126.13
2019-02-21T22:21:02.848Z,101130.13
2019-02-21T22:26:08.410Z,101139.45
2019-02-21T22:31:14.006Z,101146.52
2019-02-21T22:36:19.652Z,101161.15
2019-02-21T22:41:25.136Z,101170.95
2019-02-21T22:46:32.402Z,101166.06
2019-02-21T22:51:37.833Z,101164.32
2019-02-21T22:56:43.238Z,101168.30
2019-02-21T23:01:49.469Z,101181.59
2019-02-21T23:07:07.549Z,101175.86
2019-02-21T23:12:12.921Z,101171.40
2019-02-21T23:17:18.417Z,101174.06
2019-02-21T23:22:23.865Z,101184.25
2019-02-21T23:27:29.240Z,101197.56
2019-02-21T23:32:34.950Z,101193.98
2019-02-21T23:37:40.267Z,101193.58
2019-02-21T23:42:45.669Z,101205.11
2019-02-21T23:47:51.092Z,101223.27
2019-02-21T23:52:56.410Z,101214.87
2019-02-21T23:58:01.781Z,101201.17
